| time (UTC) | temp C | wind direction | speed KPH | gust KPH | rain 1hr cm | rain 24hr cm | rain mn cm | humidity % | barometer mb |
| 20260903131145 | 25 | 58 | 11.3 | 17.7 | 0.00 | 0.03 | 0.03 | 40 | 1017.1 |
| 20260903130532 | 26 | 75 | 9.7 | 16.1 | 0.00 | 0.03 | 0.03 | 38 | 1017.0 |
| 20260903125532 | 26 | 69 | 8.0 | 14.5 | 0.00 | 0.03 | 0.03 | 38 | 1017.0 |
| 20260903124145 | 25 | 46 | 11.3 | 20.9 | 0.00 | 0.03 | 0.03 | 42 | 1017.2 |
| 20260903123532 | 25 | 46 | 11.3 | 19.3 | 0.00 | 0.03 | 0.03 | 44 | 1017.2 |
| 20260903122532 | 25 | 57 | 6.4 | 12.9 | 0.00 | 0.03 | 0.03 | 43 | 1017.2 |
| 20260903121145 | 25 | 51 | 8.0 | 14.5 | 0.00 | 0.03 | 0.03 | 45 | 1017.5 |
| 20260903120531 | 25 | 8 | 4.8 | 9.7 | 0.00 | 0.03 | 0.03 | 44 | 1017.4 |
| 20260903115532 | 24 | 50 | 6.4 | 16.1 | 0.00 | 0.03 | 0.03 | 43 | 1017.6 |
| 20260903114141 | 25 | 75 | 3.2 | 9.7 | 0.00 | 0.03 | 0.03 | 43 | 1017.5 |
| 20260903113532 | 25 | 62 | 6.4 | 12.9 | 0.00 | 0.03 | 0.03 | 42 | 1017.6 |
| 20260903112531 | 25 | 86 | 4.8 | 14.5 | 0.00 | 0.03 | 0.03 | 40 | 1017.6 |
| 20260903111145 | 24 | 95 | 4.8 | 16.1 | 0.00 | 0.03 | 0.03 | 44 | 1017.8 |
| 20260903110532 | 23 | 70 | 3.2 | 8.0 | 0.00 | 0.03 | 0.03 | 45 | 1018.0 |
| 20260903105532 | 23 | 88 | 6.4 | 12.9 | 0.00 | 0.03 | 0.03 | 48 | 1018.6 |
| 20260903104145 | 23 | 79 | 6.4 | 11.3 | 0.00 | 0.03 | 0.03 | 52 | 1019.0 |
| 20260903103532 | 22 | 66 | 8.0 | 14.5 | 0.00 | 0.03 | 0.03 | 52 | 1019.1 |
| 20260903102532 | 22 | 77 | 6.4 | 11.3 | 0.00 | 0.03 | 0.03 | 57 | 1019.1 |
| 20260903101145 | 21 | 60 | 6.4 | 12.9 | 0.00 | 0.03 | 0.03 | 60 | 1019.4 |
| 20260903100532 | 21 | 65 | 4.8 | 11.3 | 0.00 | 0.03 | 0.03 | 61 | 1019.6 |
| 20260903095532 | 21 | 70 | 6.4 | 9.7 | 0.00 | 0.03 | 0.03 | 61 | 1019.9 |
| 20260903094144 | 20 | 81 | 6.4 | 11.3 | 0.00 | 0.03 | 0.03 | 63 | 1020.1 |
| 20260903093532 | 20 | 80 | 6.4 | 9.7 | 0.00 | 0.03 | 0.03 | 65 | 1020.4 |
| 20260903091145 | 19 | 32 | 3.2 | 9.7 | 0.00 | 0.03 | 0.03 | 67 | 1020.9 |
| 20260903090532 | 19 | 335 | 3.2 | 6.4 | 0.00 | 0.03 | 0.03 | 66 | 1021.0 |
| 20260903085532 | 18 | 318 | 3.2 | 6.4 | 0.00 | 0.03 | 0.03 | 69 | 1021.2 |
| 20260903084144 | 18 | 75 | 1.6 | 4.8 | 0.00 | 0.03 | 0.03 | 70 | 1021.5 |
| 20260903083532 | 18 | 139 | 3.2 | 6.4 | 0.00 | 0.03 | 0.03 | 71 | 1021.5 |
| 20260903082532 | 18 | 48 | 1.6 | 4.8 | 0.00 | 0.03 | 0.03 | 70 | 1021.6 |
| 20260903081145 | 17 | 71 | 4.8 | 8.0 | 0.00 | 0.03 | 0.03 | 73 | 1021.5 |
| 20260903080532 | 17 | 68 | 4.8 | 8.0 | 0.00 | 0.03 | 0.03 | 78 | 1021.7 |
| 20260903075532 | 16 | 43 | 1.6 | 6.4 | 0.00 | 0.03 | 0.03 | 78 | 1022.0 |
| 20260903074145 | 16 | 79 | 3.2 | 6.4 | 0.00 | 0.03 | 0.03 | 79 | 1022.1 |
| 20260903073531 | 16 | 95 | 3.2 | 6.4 | 0.00 | 0.03 | 0.03 | 79 | 1022.3 |
| 20260903072531 | 15 | 152 | 3.2 | 8.0 | 0.00 | 0.03 | 0.03 | 82 | 1022.4 |
| 20260903071145 | 15 | 138 | 4.8 | 8.0 | 0.00 | 0.03 | 0.03 | 82 | 1022.6 |
| 20260903070532 | 15 | 105 | 3.2 | 8.0 | 0.00 | 0.03 | 0.03 | 84 | 1022.6 |
| 20260903065532 | 15 | 173 | 3.2 | 6.4 | 0.00 | 0.03 | 0.03 | 85 | 1022.8 |
| 20260903064144 | 14 | 115 | 3.2 | 4.8 | 0.00 | 0.03 | 0.03 | 86 | 1023.0 |
| 20260903063531 | 14 | 164 | 1.6 | 4.8 | 0.00 | 0.03 | 0.03 | 88 | 1022.9 |
| 20260903062532 | 13 | 209 | 1.6 | 3.2 | 0.00 | 0.03 | 0.03 | 92 | 1023.1 |
| 20260903061145 | 13 | 166 | 0.0 | 1.6 | 0.00 | 0.03 | 0.03 | 94 | 1023.3 |
| 20260903060532 | 13 | 307 | 1.6 | 3.2 | 0.00 | 0.03 | 0.03 | 95 | 1023.3 |
| 20260903055531 | 12 | 301 | 0.0 | 3.2 | 0.00 | 0.03 | 0.03 | 95 | 1023.3 |
| 20260903054144 | 12 | 68 | 0.0 | 3.2 | 0.00 | 0.03 | 0.03 | 96 | 1023.3 |
| 20260903053532 | 12 | 250 | 0.0 | 3.2 | 0.00 | 0.03 | 0.03 | 96 | 1023.3 |
| 20260903052532 | 12 | 190 | 1.6 | 3.2 | 0.00 | 0.03 | 0.03 | 96 | 1023.2 |
| 20260903051145 | 12 | 238 | 1.6 | 3.2 | 0.00 | 0.03 | 0.03 | 95 | 1023.2 |
| 20260903050531 | 11 | 265 | 3.2 | 4.8 | 0.00 | 0.03 | 0.03 | 95 | 1023.3 |
| 20260903045532 | 12 | 306 | 3.2 | 4.8 | 0.00 | 0.03 | 0.03 | 95 | 1023.2 |
| 20260903044144 | 12 | 323 | 1.6 | 4.8 | 0.00 | 0.03 | 0.03 | 95 | 1023.1 |
| 20260903043531 | 12 | 99 | 1.6 | 3.2 | 0.00 | 0.03 | 0.03 | 96 | 1023.0 |
| 20260903042532 | 12 | 79 | 3.2 | 6.4 | 0.00 | 0.03 | 0.03 | 95 | 1022.9 |
| 20260903041144 | 12 | 49 | 4.8 | 8.0 | 0.00 | 0.03 | 0.03 | 96 | 1022.9 |
| 20260903040532 | 12 | 32 | 6.4 | 8.0 | 0.00 | 0.03 | 0.03 | 95 | 1023.0 |
| 20260903035532 | 12 | 28 | 3.2 | 6.4 | 0.00 | 0.03 | 0.03 | 95 | 1022.9 |
| 20260903034531 | 12 | 59 | 3.2 | 4.8 | 0.00 | 0.03 | 0.03 | 94 | 1023.0 |
| 20260903033531 | 12 | 35 | 3.2 | 6.4 | 0.00 | 0.03 | 0.03 | 94 | 1023.0 |
| 20260903032532 | 12 | 85 | 0.0 | 1.6 | 0.00 | 0.03 | 0.03 | 96 | 1022.8 |
| 20260903031145 | 12 | 238 | 1.6 | 3.2 | 0.00 | 0.03 | 0.03 | 96 | 1023.0 |
| 20260903030532 | 11 | 252 | 3.2 | 3.2 | 0.00 | 0.03 | 0.03 | 96 | 1023.0 |
| 20260903025532 | 11 | 234 | 1.6 | 3.2 | 0.00 | 0.03 | 0.03 | 96 | 1023.0 |
| 20260903024532 | 11 | 243 | 3.2 | 3.2 | 0.00 | 0.03 | 0.03 | 96 | 1023.2 |
| 20260903023532 | 11 | 328 | 3.2 | 3.2 | 0.00 | 0.03 | 0.03 | 96 | 1023.2 |
| 20260903022532 | 11 | 320 | 6.4 | 8.0 | 0.00 | 0.03 | 0.03 | 95 | 1023.2 |
| 20260903021144 | 11 | 316 | 4.8 | 6.4 | 0.00 | 0.03 | 0.03 | 95 | 1023.3 |
| 20260903020532 | 12 | 346 | 4.8 | 6.4 | 0.00 | 0.03 | 0.00 | 95 | 1023.3 |
| 20260903015532 | 12 | 360 | 3.2 | 6.4 | 0.00 | 0.03 | 0.00 | 96 | 1023.1 |
| 20260903014144 | 12 | 31 | 1.6 | 6.4 | 0.00 | 0.03 | 0.00 | 95 | 1023.2 |
| 20260903012531 | 13 | 135 | 3.2 | 4.8 | 0.00 | 0.03 | 0.00 | 95 | 1022.8 |
| 20260903011145 | 13 | 191 | 1.6 | 3.2 | 0.00 | 0.03 | 0.00 | 95 | 1022.8 |
| 20260903010532 | 13 | 277 | 0.0 | 8.0 | 0.00 | 0.03 | 0.00 | 95 | 1022.8 |
| 20260903005532 | 12 | 322 | 8.0 | 9.7 | 0.00 | 0.05 | 0.00 | 95 | 1023.0 |
| 20260903004145 | 13 | 319 | 4.8 | 6.4 | 0.00 | 0.05 | 0.00 | 95 | 1022.9 |
| 20260903003532 | 13 | 332 | 3.2 | 6.4 | 0.00 | 0.05 | 0.00 | 95 | 1022.8 |
| 20260903002532 | 13 | 321 | 4.8 | 8.0 | 0.00 | 0.05 | 0.00 | 94 | 1022.9 |
| 20260903001544 | 13 | 347 | 4.8 | 9.7 | 0.00 | 0.05 | 0.00 | 93 | 1022.8 |
| 20260903000531 | 13 | 82 | 3.2 | 11.3 | 0.00 | 0.05 | 0.00 | 92 | 1022.9 |
| 20260902235531 | 13 | 155 | 6.4 | 9.7 | 0.00 | 0.05 | 0.00 | 92 | 1022.8 |
| 20260902234145 | 13 | 135 | 4.8 | 11.3 | 0.00 | 0.05 | 0.00 | 92 | 1022.8 |
| 20260902233531 | 13 | 128 | 3.2 | 9.7 | 0.00 | 0.05 | 0.00 | 92 | 1022.6 |
| 20260902232531 | 13 | 353 | 6.4 | 8.0 | 0.00 | 0.05 | 0.00 | 93 | 1022.7 |
| 20260902231532 | 13 | 321 | 6.4 | 12.9 | 0.00 | 0.05 | 0.00 | 93 | 1022.8 |
| 20260902230532 | 13 | 246 | 4.8 | 8.0 | 0.00 | 0.05 | 0.00 | 93 | 1022.7 |
| 20260902225532 | 13 | 213 | 1.6 | 4.8 | 0.00 | 0.05 | 0.00 | 91 | 1022.8 |
| 20260902224145 | 13 | 21 | 1.6 | 4.8 | 0.00 | 0.05 | 0.00 | 91 | 1022.8 |
| 20260902223532 | 13 | 60 | 3.2 | 4.8 | 0.00 | 0.05 | 0.00 | 89 | 1022.5 |
| 20260902222532 | 13 | 36 | 3.2 | 6.4 | 0.00 | 0.05 | 0.00 | 90 | 1022.5 |
| 20260902221145 | 13 | 36 | 3.2 | 4.8 | 0.00 | 0.05 | 0.00 | 90 | 1022.5 |
| 20260902220531 | 13 | 47 | 3.2 | 4.8 | 0.00 | 0.05 | 0.05 | 90 | 1022.6 |
| 20260902215532 | 13 | 80 | 1.6 | 4.8 | 0.00 | 0.05 | 0.05 | 90 | 1022.6 |
| 20260902214145 | 13 | 55 | 3.2 | 4.8 | 0.00 | 0.05 | 0.05 | 90 | 1022.4 |
| 20260902213531 | 13 | 47 | 1.6 | 3.2 | 0.00 | 0.05 | 0.05 | 90 | 1022.3 |
| 20260902211145 | 13 | 360 | 3.2 | 4.8 | 0.00 | 0.05 | 0.05 | 92 | 1022.3 |
| 20260902210532 | 13 | 15 | 3.2 | 4.8 | 0.00 | 0.05 | 0.05 | 89 | 1022.3 |
| 20260902205532 | 13 | 79 | 1.6 | 3.2 | 0.00 | 0.05 | 0.05 | 91 | 1022.1 |
| 20260902204146 | 13 | 54 | 1.6 | 4.8 | 0.00 | 0.05 | 0.05 | 90 | 1022.0 |
| 20260902203531 | 14 | 65 | 4.8 | 6.4 | 0.00 | 0.05 | 0.05 | 90 | 1021.8 |
| 20260902202532 | 13 | 48 | 1.6 | 3.2 | 0.00 | 0.05 | 0.05 | 90 | 1022.0 |
| 20260902201145 | 13 | 4 | 3.2 | 6.4 | 0.00 | 0.05 | 0.05 | 89 | 1022.0 |
| 20260902200532 | 15 | 76 | 6.4 | 9.7 | 0.00 | 0.05 | 0.05 | 87 | 1021.7 |
| 20260902195532 | 15 | 100 | 4.8 | 8.0 | 0.00 | 0.05 | 0.05 | 86 | 1021.7 |
| 20260902194145 | 15 | 92 | 4.8 | 8.0 | 0.00 | 0.05 | 0.05 | 86 | 1021.5 |
| 20260902193532 | 15 | 80 | 4.8 | 8.0 | 0.00 | 0.05 | 0.05 | 86 | 1021.5 |
| 20260902192531 | 15 | 80 | 6.4 | 9.7 | 0.00 | 0.05 | 0.05 | 86 | 1021.2 |
| 20260902191145 | 16 | 84 | 6.4 | 8.0 | 0.00 | 0.05 | 0.05 | 85 | 1021.2 |
| 20260902190531 | 16 | 81 | 6.4 | 8.0 | 0.00 | 0.05 | 0.05 | 85 | 1021.0 |
| 20260902185532 | 16 | 76 | 6.4 | 9.7 | 0.00 | 0.05 | 0.05 | 84 | 1020.8 |
| 20260902184145 | 16 | 67 | 1.6 | 4.8 | 0.00 | 0.05 | 0.05 | 81 | 1020.9 |
| 20260902183532 | 16 | 7 | 0.0 | 4.8 | 0.00 | 0.05 | 0.05 | 79 | 1020.7 |
| 20260902182532 | 16 | 51 | 3.2 | 6.4 | 0.00 | 0.05 | 0.05 | 78 | 1020.5 |
| 20260902181145 | 16 | 18 | 4.8 | 6.4 | 0.00 | 0.05 | 0.05 | 78 | 1020.0 |
| 20260902180532 | 17 | 45 | 6.4 | 9.7 | 0.00 | 0.05 | 0.05 | 75 | 1019.7 |
| 20260902175532 | 17 | 51 | 8.0 | 11.3 | 0.00 | 0.05 | 0.05 | 77 | 1019.6 |
| 20260902174145 | 18 | 90 | 8.0 | 11.3 | 0.00 | 0.05 | 0.05 | 73 | 1019.2 |
| 20260902173531 | 18 | 100 | 9.7 | 16.1 | 0.00 | 0.05 | 0.05 | 72 | 1019.0 |
| 20260902172532 | 18 | 92 | 14.5 | 17.7 | 0.00 | 0.05 | 0.05 | 70 | 1019.0 |
| 20260902171145 | 18 | 80 | 11.3 | 16.1 | 0.00 | 0.05 | 0.05 | 67 | 1018.9 |
| 20260902170532 | 19 | 93 | 8.0 | 11.3 | 0.00 | 0.05 | 0.05 | 64 | 1018.8 |
| 20260902165532 | 19 | 92 | 9.7 | 16.1 | 0.00 | 0.05 | 0.05 | 64 | 1018.8 |
| 20260902164145 | 20 | 94 | 12.9 | 17.7 | 0.00 | 0.05 | 0.05 | 61 | 1018.7 |
| 20260902163532 | 21 | 81 | 12.9 | 16.1 | 0.00 | 0.05 | 0.05 | 59 | 1018.4 |
| 20260902162532 | 21 | 78 | 14.5 | 17.7 | 0.00 | 0.05 | 0.05 | 60 | 1018.3 |
| 20260902161145 | 20 | 92 | 14.5 | 17.7 | 0.00 | 0.05 | 0.05 | 64 | 1018.4 |
| 20260902160531 | 21 | 90 | 16.1 | 19.3 | 0.00 | 0.05 | 0.05 | 62 | 1018.5 |
| 20260902155532 | 20 | 96 | 9.7 | 16.1 | 0.00 | 0.05 | 0.05 | 62 | 1018.4 |
| 20260902154145 | 20 | 96 | 14.5 | 20.9 | 0.00 | 0.05 | 0.05 | 65 | 1018.5 |
| 20260902153532 | 20 | 65 | 16.1 | 22.5 | 0.00 | 0.05 | 0.05 | 65 | 1018.7 |
| 20260902152532 | 19 | 67 | 20.9 | 27.4 | 0.00 | 0.05 | 0.05 | 67 | 1018.8 |
| 20260902151145 | 20 | 81 | 19.3 | 25.7 | 0.00 | 0.05 | 0.05 | 65 | 1018.7 |
| 20260902150532 | 20 | 83 | 20.9 | 25.7 | 0.00 | 0.05 | 0.05 | 66 | 1018.5 |
| 20260902145532 | 20 | 74 | 20.9 | 27.4 | 0.00 | 0.05 | 0.05 | 62 | 1018.4 |
| 20260902144145 | 21 | 71 | 17.7 | 24.1 | 0.00 | 0.05 | 0.05 | 54 | 1018.1 |
| 20260902143531 | 21 | 49 | 16.1 | 22.5 | 0.00 | 0.05 | 0.05 | 54 | 1017.7 |
| 20260902142532 | 21 | 51 | 20.9 | 25.7 | 0.00 | 0.05 | 0.05 | 56 | 1017.8 |
| 20260902141145 | 20 | 59 | 20.9 | 27.4 | 0.00 | 0.05 | 0.05 | 55 | 1018.3 |
| 20260902140532 | 20 | 69 | 24.1 | 35.4 | 0.00 | 0.05 | 0.05 | 55 | 1018.4 |
| 20260902135532 | 21 | 79 | 29.0 | 41.8 | 0.00 | 0.05 | 0.05 | 52 | 1018.3 |
| 20260902134144 | 22 | 66 | 25.7 | 37.0 | 0.00 | 0.05 | 0.05 | 46 | 1017.6 |
| 20260902133532 | 23 | 66 | 11.3 | 27.4 | 0.00 | 0.05 | 0.05 | 44 | 1017.1 |
| 20260902132532 | 24 | 70 | 9.7 | 24.1 | 0.00 | 0.05 | 0.05 | 44 | 1017.0 |